Lodgepole, Nebraska
Current Conditions -  °F | °C
As of 6:53 AM on Saturday 27 Dec 2014 (Local Time) from KSNY Reporting Station
Clear Clear  
Wind Chill: -27°   Ceiling: Unl
Heat Index: -17°   Visibility: 10mi
Dew Point: -20°   Wind: 14mph
Humidity: 76%   Direction: 290°WNW
Pressure: 30.14"   Gusts: NA
Location:  41.15°N, 102.64°W
Report Text: KSNY 271353Z AUTO 29012KT 10SM CLR M17/M20 A3014 RMK AO2 SLP283 T11671200
Loading
Personal Weather Stations






























Interactive Weather Map New forecast layout! Learn more

10-Day Weather Forecast

Advertisements
Track Severe Weather on mobile